INFORMACIÓN METAR y TAF
METAR FOR EDDT
ADDS - METARS form results

(0106 UTC 13 December 2019)
Data provider http://aviationweather.gov/metar/data/
 
METAR text: EDDT 130050Z 15009KT 9999 BKN024 01/M00 Q0994
Conditions at: EDDT (BERLIN/TEGEL (FA, DE) observed 0050 UTC 13 December 2019
Temperature: 1.0°C (34°F)
Dewpoint: 0.0°C (32°F) [RH = 93%]
Pressure (altimeter): 29.35 inches Hg (994.0 mb)
Winds: from the SSE (150 degrees) at 10 MPH (9 knots; 4.6 m/s)
Visibility: 6 or more miles (10+ km)
Ceiling: 2400 feet AGL
Clouds: broken clouds at 2400 feet AGL
Weather: no significant weather observed at this time

METAR text: EDDT 130020Z 15009KT 120V180 9999 BKN023 02/M00 Q0995
Conditions at: EDDT (BERLIN/TEGEL (FA, DE) observed 0020 UTC 13 December 2019
Temperature: 2.0°C (36°F)
Dewpoint: 0.0°C (32°F) [RH = 87%]
Pressure (altimeter): 29.38 inches Hg (995.0 mb)
Winds: from the SSE (150 degrees) at 10 MPH (9 knots; 4.6 m/s)
Visibility: 6 or more miles (10+ km)
Ceiling: 2300 feet AGL
Clouds: broken clouds at 2300 feet AGL
Weather: no significant weather observed at this time

Forecast for: EDDT (BERLIN/TEGEL (FA, DE)
Text: TAF EDDT 122300Z 1300/1324 13010KT 9999 BKN040
Forecast period: 0000 UTC 13 December 2019 to 0000 UTC 14 December 2019
Forecast type: FROM: standard forecast or significant change
Winds: from the SE (130 degrees) at 12 MPH (10 knots; 5.1 m/s)
Visibility: 6 or more miles 10+ km)
Ceiling: 4000 feet AGL
Clouds: broken clouds at 4000 feet AGL
Weather: no significant weather forecast for this period
Text: TEMPO 1318/1324 BKN010
Forecast period: 1800 UTC 13 December 2019 to 0000 UTC 14 December 2019
Forecast type: TEMPORARY: The following changes expected for less than half the time period
Visibility: missing
Ceiling: 1000 feet AGL
Clouds: broken clouds at 1000 feet AGL
Weather: no significant weather forecast for this period

MAPA DE AEROPUERTO

INFORMACIÓN DE PISTA
Pista 08L Longitud 9918 ft Ancho 151 ft
Elevación 110 ft Umbral desplazado 0 ft Rumbo de pista 81
Pista 26R Longitud 9918 ft Ancho 151 ft
Elevación 117 ft Umbral desplazado 0 ft Rumbo de pista 261
Pista 08R Longitud 7966 ft Ancho 151 ft
Elevación 109 ft Umbral desplazado 341 ft Rumbo de pista 81
Pista 26L Longitud 7966 ft Ancho 151 ft
Elevación 122 ft Umbral desplazado 722 ft Rumbo de pista 261

FRECUANCIAS DEL AEROPUERTO
Tipo AFIS Nombre BERLIN INF Frecuencia 132.65 MHZ
Tipo APP Nombre BERLIN ARR Frecuencia 119.625 MHZ
Tipo ATIS Nombre ATIS Frecuencia 125.9 MHZ
Tipo DEP Nombre BERLIN DEP Frecuencia 120.625 MHZ
Tipo DIR Nombre BERLIN DIR Frecuencia 136.1 MHZ
Tipo GND Nombre GND Frecuencia 121.925 MHZ
Tipo RMP Nombre BERLIN MIL Frecuencia 136 MHZ
Tipo TWR Nombre TWR Frecuencia 124.525 MHZ

RADIO AYUDAS DEL AEROPUERTO
Tipo NDB Nombre Tegel East Frecuencia 321 KHZ
Tipo NDB Nombre Tegel West Frecuencia 392 KHZ
Tipo VOR-DME Nombre Tegel Frecuencia 112300 KHZ